Time;durP1;ratioP1;P1;durP2;ratioP2;P2;SDS_P1;SDS_P2;PMS_P1;PMS_P2;Temp;Humidity;BMP_temperature;BMP_pressure;BME280_temperature;BME280_humidity;BME280_pressure;Samples;Min_cycle;Max_cycle;Signal;HPM_P1;HPM_P2
2022/09/03 00:02:36;;;;;;;8.03;2.25;;;;;;;14.10;56.34;100629.02;1830302;97;28353;-77
2022/09/03 00:05:50;;;;;;;2.62;1.55;;;;;;;14.07;56.35;100622.45;1830270;97;28721;-72
2022/09/03 00:09:17;;;;;;;2.02;1.75;;;;;;;14.03;56.39;100626.31;1846950;95;31099;-70
2022/09/03 00:12:35;;;;;;;3.17;1.75;;;;;;;13.97;56.37;100622.16;1863137;95;33020;-71
2022/09/03 00:15:39;;;;;;;4.05;1.70;;;;;;;13.94;56.55;100626.83;1862870;95;29377;-70
2022/09/03 00:18:47;;;;;;;5.40;2.00;;;;;;;13.90;56.71;100628.84;1875633;94;27841;-72
2022/09/03 00:21:54;;;;;;;5.65;2.10;;;;;;;13.87;56.58;100622.29;1863252;95;28685;-73
2022/09/03 00:24:59;;;;;;;4.55;1.80;;;;;;;13.82;56.71;100617.17;1900809;93;32377;-71
2022/09/03 00:28:05;;;;;;;4.17;1.90;;;;;;;13.77;56.99;100612.53;1875962;94;33012;-72
2022/09/03 00:31:13;;;;;;;2.67;1.87;;;;;;;13.70;57.07;100612.52;1873117;94;29341;-72
2022/09/03 00:34:39;;;;;;;5.37;2.00;;;;;;;13.65;57.08;100614.09;1875872;94;27792;-71
2022/09/03 00:37:40;;;;;;;;;;;;;;;13.59;57.27;100608.20;1908748;91;29079;-73
2022/09/03 00:41:21;;;;;;;7.37;2.62;;;;;;;13.49;57.40;100609.20;1941472;91;31661;-73
2022/09/03 00:44:50;;;;;;;4.40;2.20;;;;;;;13.38;57.71;100608.46;1933620;92;33426;-74
2022/09/03 00:48:09;;;;;;;3.52;2.08;;;;;;;13.27;57.92;100608.17;1933245;92;30510;-73
2022/09/03 00:51:41;;;;;;;3.33;1.72;;;;;;;13.16;58.12;100608.31;1933688;92;27743;-71
2022/09/03 00:55:01;;;;;;;4.10;2.20;;;;;;;13.07;58.15;100611.03;1933437;92;28944;-69
2022/09/03 00:58:34;;;;;;;3.05;1.95;;;;;;;13.00;58.37;100616.83;1933780;92;31427;-69
2022/09/03 01:02:05;;;;;;;5.53;1.80;;;;;;;12.89;58.45;100608.89;1845299;96;33334;-71
2022/09/03 01:05:35;;;;;;;4.92;1.90;;;;;;;12.81;58.61;100607.56;1845803;96;30308;-69
2022/09/03 01:08:52;;;;;;;3.90;2.10;;;;;;;12.72;58.90;100611.13;1845459;96;27718;-69
2022/09/03 01:12:12;;;;;;;6.15;2.30;;;;;;;12.65;59.03;100610.20;1839657;96;28824;-71
2022/09/03 01:15:22;;;;;;;10.98;2.50;;;;;;;12.58;59.29;100617.23;1845337;96;31223;-71
2022/09/03 01:19:07;;;;;;;7.08;2.30;;;;;;;12.50;59.49;100618.12;1845499;96;33472;-69
2022/09/03 01:22:27;;;;;;;5.22;2.33;;;;;;;12.44;59.62;100613.95;1780428;100;30543;-70
2022/09/03 01:25:49;;;;;;;3.05;1.92;;;;;;;12.38;59.74;100614.75;1800079;98;27701;-70
2022/09/03 01:28:56;;;;;;;3.22;2.30;;;;;;;12.29;59.88;100612.06;1780715;100;29268;-71
2022/09/03 01:32:38;;;;;;;6.83;2.72;;;;;;;12.23;60.00;100613.25;1802505;96;31232;-70
2022/09/03 01:36:12;;;;;;;6.33;2.33;;;;;;;12.18;60.22;100617.09;1863544;95;33411;-72
2022/09/03 01:39:20;;;;;;;7.58;2.25;;;;;;;12.10;60.29;100610.33;1842358;96;29391;-68
2022/09/03 01:42:53;;;;;;;3.45;2.35;;;;;;;12.04;60.82;100610.63;1863203;95;27659;-69
2022/09/03 01:46:01;;;;;;;5.12;2.22;;;;;;;11.98;61.05;100610.92;1863587;95;29511;-71
2022/09/03 01:49:26;;;;;;;3.08;2.15;;;;;;;11.93;60.75;100604.91;1842418;96;31071;-73
2022/09/03 01:52:51;;;;;;;5.27;2.43;;;;;;;11.90;60.85;100603.71;1863297;95;35190;-71
2022/09/03 01:56:16;;;;;;;9.50;2.77;;;;;;;11.85;60.99;100615.54;1788100;99;29724;-72
2022/09/03 01:59:32;;;;;;;5.10;2.60;;;;;;;11.82;60.83;100610.35;1825046;94;27901;-68
2022/09/03 02:02:34;;;;;;;5.53;2.35;;;;;;;11.78;61.47;100606.08;1906208;93;28132;-68
2022/09/03 02:05:36;;;;;;;6.90;2.08;;;;;;;11.76;61.35;100605.73;1906248;93;32051;-68
2022/09/03 02:08:38;;;;;;;4.60;2.50;;;;;;;11.72;61.29;100602.34;1928639;91;34398;-68
2022/09/03 02:11:41;;;;;;;6.87;2.52;;;;;;;11.68;61.73;100600.29;1928969;91;30101;-71
2022/09/03 02:14:43;;;;;;;4.55;2.33;;;;;;;11.64;61.52;100599.19;1929204;92;27964;-69
2022/09/03 02:17:48;;;;;;;2.77;2.20;;;;;;;11.60;61.73;100601.12;1929174;92;28676;-70
2022/09/03 02:20:52;;;;;;;6.17;2.55;;;;;;;11.56;61.63;100602.24;1929353;92;31713;-71
2022/09/03 02:23:54;;;;;;;3.20;1.98;;;;;;;11.53;61.76;100605.07;1944916;90;33050;-68
2022/09/03 02:26:56;;;;;;;4.17;2.40;;;;;;;11.49;62.16;100605.70;1968555;90;30163;-70
2022/09/03 02:29:57;;;;;;;4.50;2.30;;;;;;;11.45;62.13;100604.10;1968908;90;27871;-72
2022/09/03 02:33:00;;;;;;;4.30;2.27;;;;;;;11.40;62.01;100601.66;1956226;90;29125;-70
2022/09/03 02:36:05;;;;;;;4.25;2.35;;;;;;;11.36;62.06;100603.19;1998458;88;31050;-70
2022/09/03 02:39:07;;;;;;;6.58;2.40;;;;;;;11.32;62.18;100605.16;1998422;89;33836;-71
2022/09/03 02:42:11;;;;;;;8.10;2.30;;;;;;;11.27;62.32;100604.98;1998156;89;29710;-71
2022/09/03 02:45:28;;;;;;;6.25;2.83;;;;;;;11.21;62.30;100608.34;1973149;89;27856;-71
2022/09/03 02:48:30;;;;;;;5.67;3.45;;;;;;;11.17;62.67;100605.89;1998419;89;28700;-70
2022/09/03 02:51:36;;;;;;;7.65;3.35;;;;;;;11.13;62.63;100601.61;1998758;89;31784;-71
2022/09/03 02:54:39;;;;;;;10.53;3.62;;;;;;;11.09;62.76;100604.42;1998503;89;33840;-70
2022/09/03 02:57:41;;;;;;;7.45;3.50;;;;;;;11.07;62.83;100612.16;1998246;89;30220;-71
2022/09/03 03:00:43;;;;;;;9.70;3.75;;;;;;;11.07;62.77;100610.81;1998302;89;36262;-70
2022/09/03 03:03:45;;;;;;;7.90;3.87;;;;;;;11.05;62.84;100605.98;1998334;89;28569;-69
2022/09/03 03:06:46;;;;;;;9.90;4.25;;;;;;;11.02;62.84;100604.78;1998235;89;31650;-69
2022/09/03 03:09:47;;;;;;;9.48;3.90;;;;;;;10.99;62.83;100606.30;1998463;89;32890;-71
2022/09/03 03:12:49;;;;;;;8.03;3.20;;;;;;;10.93;63.02;100604.29;1998085;89;30697;-69
2022/09/03 03:15:51;;;;;;;8.28;3.47;;;;;;;10.90;63.20;100607.11;1998481;89;27628;-70
2022/09/03 03:18:54;;;;;;;5.30;3.02;;;;;;;10.86;63.10;100605.50;1948157;90;29164;-68
2022/09/03 03:21:55;;;;;;;10.35;3.77;;;;;;;10.82;63.05;100607.95;1968088;89;32240;-67
2022/09/03 03:24:57;;;;;;;6.37;3.80;;;;;;;10.79;63.26;100604.91;1978275;89;33496;-68
2022/09/03 03:27:58;;;;;;;11.90;3.50;;;;;;;10.76;63.25;100606.38;1967628;90;29782;-69
2022/09/03 03:31:10;;;;;;;8.85;3.70;;;;;;;10.71;63.35;100607.54;1968337;90;27827;-67
2022/09/03 03:34:11;;;;;;;13.22;4.15;;;;;;;10.66;63.62;100609.09;1967916;90;28670;-66
2022/09/03 03:37:12;;;;;;;12.33;4.12;;;;;;;10.63;63.71;100608.77;1967838;90;31616;-70
2022/09/03 03:40:14;;;;;;;7.92;3.27;;;;;;;10.60;63.76;100611.59;1968073;90;33381;-67
2022/09/03 03:43:15;;;;;;;8.53;3.77;;;;;;;10.56;63.86;100604.61;1954534;91;29401;-68
2022/09/03 03:46:16;;;;;;;12.63;3.98;;;;;;;10.52;63.96;100600.33;1955365;91;27665;-69
2022/09/03 03:49:17;;;;;;;12.75;4.37;;;;;;;10.51;64.03;100601.75;1954981;91;28859;-66
2022/09/03 03:52:19;;;;;;;17.90;5.85;;;;;;;10.46;64.14;100608.17;1954973;91;30882;-67
2022/09/03 03:55:20;;;;;;;14.18;4.90;;;;;;;10.44;64.09;100611.38;1954470;91;34011;-66
2022/09/03 03:58:22;;;;;;;12.90;5.45;;;;;;;10.40;64.29;100603.11;1954796;91;29388;-67
2022/09/03 04:01:26;;;;;;;15.93;6.80;;;;;;;10.39;64.35;100603.16;1967859;90;27634;-70
2022/09/03 04:04:27;;;;;;;16.20;5.45;;;;;;;10.36;64.42;100608.61;1954792;91;28654;-66
2022/09/03 04:07:32;;;;;;;15.65;5.08;;;;;;;10.32;64.44;100608.77;1967761;90;30919;-70
2022/09/03 04:10:33;;;;;;;21.45;6.72;;;;;;;10.30;64.47;100617.78;1968070;90;34160;-70
2022/09/03 04:13:40;;;;;;;14.35;5.45;;;;;;;10.26;64.74;100610.84;1967827;89;29695;-71
2022/09/03 04:16:42;;;;;;;10.15;3.90;;;;;;;10.24;64.73;100615.39;1967992;90;27697;-71
2022/09/03 04:19:44;;;;;;;11.38;4.08;;;;;;;10.23;64.73;100609.63;1968046;90;29687;-70
2022/09/03 04:22:45;;;;;;;15.23;4.20;;;;;;;10.22;64.87;100609.23;1954704;91;31081;-70
2022/09/03 04:25:52;;;;;;;13.98;4.87;;;;;;;10.21;64.86;100612.36;1954564;90;32865;-69
2022/09/03 04:28:53;;;;;;;15.20;4.15;;;;;;;10.23;65.01;100610.48;1954795;91;30553;-69
2022/09/03 04:35:15;;;;;;;17.32;4.12;;;;;;;10.29;64.96;100613.36;1954941;91;29068;-68
2022/09/03 04:38:16;;;;;;;10.15;4.20;;;;;;;10.34;65.16;100614.04;1955212;91;31405;-70
2022/09/03 04:41:27;;;;;;;11.28;4.25;;;;;;;10.36;65.09;100613.51;1954629;91;33324;-67
2022/09/03 04:44:28;;;;;;;11.70;4.12;;;;;;;10.40;65.20;100612.93;1954877;91;30586;-68
2022/09/03 04:47:30;;;;;;;12.28;5.20;;;;;;;10.44;65.14;100616.73;1954840;91;27569;-68
2022/09/03 04:50:34;;;;;;;8.70;4.30;;;;;;;10.50;65.05;100629.02;1954480;91;29740;-68
2022/09/03 04:53:38;;;;;;;15.15;5.17;;;;;;;10.57;65.17;100625.59;1955073;91;32076;-68
2022/09/03 04:56:39;;;;;;;12.88;4.10;;;;;;;10.66;65.17;100636.38;1954843;91;33006;-69
2022/09/03 04:59:41;;;;;;;15.13;5.08;;;;;;;10.75;65.11;100629.25;1954507;91;31524;-70
2022/09/03 05:02:46;;;;;;;10.85;4.17;;;;;;;10.85;64.94;100628.36;1954508;91;28019;-70
2022/09/03 05:05:55;;;;;;;10.50;4.23;;;;;;;10.95;64.91;100618.95;1955186;91;29068;-69
2022/09/03 05:08:56;;;;;;;12.58;4.45;;;;;;;11.05;64.81;100625.64;1954693;91;31243;-69
2022/09/03 05:11:58;;;;;;;9.28;4.08;;;;;;;11.13;64.79;100626.63;1954749;90;33025;-71
2022/09/03 05:14:59;;;;;;;11.18;4.37;;;;;;;11.22;64.73;100622.64;1955074;91;30092;-73
2022/09/03 05:18:02;;;;;;;7.62;3.37;;;;;;;11.32;64.70;100630.64;1968011;90;27717;-70
2022/09/03 05:21:06;;;;;;;14.30;3.98;;;;;;;11.40;64.44;100636.52;1968267;90;29046;-72
2022/09/03 05:24:10;;;;;;;6.33;3.20;;;;;;;11.51;64.36;100636.47;1972022;89;31161;-71
2022/09/03 05:27:11;;;;;;;12.82;3.02;;;;;;;11.63;64.27;100635.02;1997704;88;34203;-67
2022/09/03 05:30:13;;;;;;;7.17;3.25;;;;;;;11.83;64.44;100640.73;1968148;90;29326;-69
2022/09/03 05:33:15;;;;;;;7.83;4.03;;;;;;;12.06;64.14;100658.90;1968753;90;27650;-69
2022/09/03 05:36:21;;;;;;;6.05;2.87;;;;;;;12.27;64.06;100648.88;1968219;90;28502;-68
2022/09/03 05:39:22;;;;;;;5.87;3.35;;;;;;;12.50;63.66;100654.86;1968155;90;31891;-70
2022/09/03 05:42:23;;;;;;;5.60;2.90;;;;;;;12.66;63.38;100657.14;1968094;90;32956;-68
2022/09/03 05:45:24;;;;;;;5.05;2.77;;;;;;;12.79;63.16;100647.11;1968305;90;29472;-71
2022/09/03 05:48:30;;;;;;;7.60;2.80;;;;;;;12.87;62.97;100640.83;1968278;90;27708;-70
2022/09/03 05:51:32;;;;;;;4.83;2.87;;;;;;;12.97;62.97;100642.08;1968223;90;28666;-71
2022/09/03 05:54:34;;;;;;;4.75;2.75;;;;;;;13.05;62.72;100647.05;1967840;90;32345;-69
2022/09/03 05:57:35;;;;;;;4.17;2.55;;;;;;;13.13;62.54;100644.79;1968513;90;34127;-68
2022/09/03 06:00:36;;;;;;;6.00;2.75;;;;;;;13.23;62.62;100643.81;1968422;90;29716;-71
2022/09/03 06:03:38;;;;;;;5.20;2.87;;;;;;;13.33;62.31;100642.33;1968266;90;27624;-69
2022/09/03 06:06:44;;;;;;;3.67;2.62;;;;;;;13.43;62.07;100647.25;1968092;90;29162;-71
2022/09/03 06:09:46;;;;;;;6.87;3.40;;;;;;;13.50;62.25;100647.28;1968335;90;31111;-71
2022/09/03 06:12:50;;;;;;;9.35;2.98;;;;;;;13.58;61.78;100650.87;1968008;90;34029;-70
2022/09/03 06:16:00;;;;;;;8.68;3.00;;;;;;;13.66;61.64;100647.30;1968546;90;29184;-68
2022/09/03 06:19:06;;;;;;;11.55;2.80;;;;;;;13.81;61.69;100646.41;1968665;90;27568;-69
2022/09/03 06:22:06;;;;;;;5.05;2.60;;;;;;;14.02;61.32;100641.20;1968260;90;28843;-68
2022/09/03 06:25:08;;;;;;;5.12;2.58;;;;;;;14.22;61.41;100642.73;1968133;89;31518;-68
2022/09/03 06:28:10;;;;;;;4.50;2.87;;;;;;;14.41;60.48;100643.84;1967765;90;33206;-67
2022/09/03 06:31:14;;;;;;;5.53;2.60;;;;;;;14.64;59.75;100648.33;1968098;90;29775;-68
2022/09/03 06:34:17;;;;;;;6.70;2.52;;;;;;;14.85;59.83;100651.06;1968535;90;27703;-68
2022/09/03 06:37:19;;;;;;;9.88;2.90;;;;;;;15.06;59.64;100643.09;1968130;90;28801;-68
2022/09/03 06:40:22;;;;;;;6.67;2.87;;;;;;;15.41;59.62;100647.58;1968163;90;32247;-68
2022/09/03 06:43:25;;;;;;;4.65;2.50;;;;;;;15.89;58.99;100653.08;1967990;90;34340;-69
2022/09/03 06:46:27;;;;;;;4.87;2.98;;;;;;;16.35;57.92;100654.02;1968286;90;30524;-70
2022/09/03 06:49:30;;;;;;;6.30;2.40;;;;;;;16.83;58.28;100657.50;1968514;90;27711;-69
2022/09/03 06:52:31;;;;;;;6.08;2.77;;;;;;;17.23;57.10;100651.11;1968275;90;29058;-69
2022/09/03 06:55:34;;;;;;;6.53;2.80;;;;;;;17.73;56.79;100662.42;1968280;90;32212;-70
2022/09/03 06:58:39;;;;;;;2.70;2.40;;;;;;;18.17;55.71;100655.52;1968230;90;33351;-69
2022/09/03 07:01:43;;;;;;;8.25;3.90;;;;;;;18.54;53.21;100659.95;1968307;90;29345;-70
2022/09/03 07:04:44;;;;;;;4.92;2.45;;;;;;;18.59;54.21;100664.55;1968342;90;27764;-70
2022/09/03 07:07:45;;;;;;;5.08;2.50;;;;;;;18.55;52.94;100664.40;1968012;90;28699;-69
2022/09/03 07:10:47;;;;;;;5.40;2.95;;;;;;;18.74;53.97;100664.33;1968096;90;31633;-69
2022/09/03 07:13:50;;;;;;;9.50;3.67;;;;;;;19.12;52.47;100660.46;1968249;90;34125;-70
2022/09/03 07:16:52;;;;;;;4.12;2.80;;;;;;;19.33;51.94;100659.73;1968291;90;29370;-71
2022/09/03 07:19:53;;;;;;;3.95;2.67;;;;;;;19.76;51.39;100664.34;1968384;90;27755;-68
2022/09/03 07:22:55;;;;;;;7.83;2.95;;;;;;;20.18;51.29;100657.72;1968321;90;29869;-67
2022/09/03 07:26:00;;;;;;;5.20;2.83;;;;;;;20.49;50.27;100644.68;1968221;89;31539;-67
2022/09/03 07:29:02;;;;;;;8.98;3.00;;;;;;;20.80;48.60;100651.57;1967990;90;33064;-69
2022/09/03 07:32:05;;;;;;;6.60;2.90;;;;;;;20.93;49.90;100644.05;1968383;90;30414;-69
2022/09/03 07:35:07;;;;;;;4.78;2.75;;;;;;;21.19;49.48;100644.09;1968574;90;27632;-70
2022/09/03 07:38:08;;;;;;;5.67;2.60;;;;;;;21.34;47.96;100652.28;1968494;90;29072;-70
2022/09/03 07:41:12;;;;;;;4.72;2.55;;;;;;;21.42;48.60;100650.71;1968329;90;31503;-68
2022/09/03 07:44:18;;;;;;;4.60;2.92;;;;;;;21.37;47.10;100650.62;1968236;90;33638;-66
2022/09/03 07:47:18;;;;;;;9.23;3.40;;;;;;;21.45;45.94;100654.53;1968166;90;30185;-69
2022/09/03 07:50:20;;;;;;;5.10;3.22;;;;;;;21.54;47.36;100649.59;1968418;90;28099;-69
2022/09/03 07:53:21;;;;;;;8.63;3.62;;;;;;;21.85;46.99;100652.27;1968081;90;29096;-70
2022/09/03 07:56:23;;;;;;;5.70;3.12;;;;;;;21.99;46.51;100649.16;1968262;90;31504;-70
2022/09/03 07:59:25;;;;;;;9.20;4.40;;;;;;;22.12;47.08;100657.05;1968238;90;34127;-70
2022/09/03 08:02:26;;;;;;;9.15;3.60;;;;;;;22.36;45.60;100650.30;1968193;90;30466;-70
2022/09/03 08:05:27;;;;;;;4.85;3.15;;;;;;;22.56;45.69;100646.22;1968434;90;28259;-71
2022/09/03 08:08:30;;;;;;;11.22;3.42;;;;;;;22.74;45.75;100651.30;1968373;90;29042;-70
2022/09/03 08:11:38;;;;;;;8.05;3.00;;;;;;;22.94;44.82;100648.48;1968565;90;31070;-70
2022/09/03 08:14:43;;;;;;;6.95;3.20;;;;;;;22.88;44.85;100652.67;1968437;90;32985;-71
2022/09/03 08:17:45;;;;;;;7.25;3.77;;;;;;;23.13;44.97;100657.14;1968258;90;30484;-69
2022/09/03 08:20:46;;;;;;;12.70;3.47;;;;;;;23.21;43.12;100653.17;1968326;90;27698;-71
2022/09/03 08:23:51;;;;;;;7.55;3.50;;;;;;;23.28;44.51;100643.86;1967850;90;28897;-69
2022/09/03 08:26:53;;;;;;;8.30;3.85;;;;;;;23.34;43.09;100644.63;1967988;89;30923;-71
2022/09/03 08:29:54;;;;;;;7.05;3.75;;;;;;;23.09;43.11;100646.15;1968291;90;33161;-72
2022/09/03 08:32:57;;;;;;;5.33;3.85;;;;;;;23.07;44.09;100637.23;1968403;90;29270;-69
2022/09/03 08:35:59;;;;;;;7.67;3.27;;;;;;;23.23;43.30;100637.13;1928731;90;27718;-70
2022/09/03 08:39:06;;;;;;;7.17;4.12;;;;;;;23.21;42.56;100635.92;1967699;90;29993;-69
2022/09/03 08:42:41;;;;;;;7.92;4.00;;;;;;;23.24;42.25;100630.16;1968001;90;31723;-69
2022/09/03 08:45:43;;;;;;;9.23;3.95;;;;;;;23.06;43.19;100632.29;1968171;90;33349;-69
2022/09/03 08:48:47;;;;;;;6.72;3.90;;;;;;;22.97;43.33;100628.22;1968036;90;29549;-70
2022/09/03 08:51:51;;;;;;;7.70;3.40;;;;;;;22.70;43.26;100621.67;1968422;90;27805;-71
2022/09/03 08:55:00;;;;;;;10.65;4.70;;;;;;;22.66;43.68;100625.73;1968216;90;28666;-69
2022/09/03 08:58:13;;;;;;;8.40;4.78;;;;;;;22.55;43.43;100622.14;1967992;90;31180;-69
2022/09/03 09:01:53;;;;;;;7.08;3.80;;;;;;;22.56;43.37;100625.23;1968125;90;33753;-70
2022/09/03 09:05:11;;;;;;;9.70;4.72;;;;;;;22.69;44.44;100617.21;1968446;90;29719;-70
2022/09/03 09:08:59;;;;;;;7.08;3.40;;;;;;;22.95;43.72;100611.96;1968405;90;27716;-71
2022/09/03 09:12:34;;;;;;;9.05;4.05;;;;;;;23.11;42.92;100620.91;1968263;90;28533;-70
2022/09/03 09:16:09;;;;;;;7.08;3.52;;;;;;;22.99;42.70;100615.28;1904938;93;32992;-70
2022/09/03 09:19:22;;;;;;;7.60;3.98;;;;;;;23.00;42.75;100617.00;1930293;92;33411;-71
2022/09/03 09:22:44;;;;;;;7.30;3.98;;;;;;;23.08;42.42;100610.27;1930201;91;30476;-70
2022/09/03 09:25:49;;;;;;;9.55;3.72;;;;;;;22.91;42.37;100618.23;1926501;92;28263;-74
2022/09/03 09:28:58;;;;;;;6.10;4.10;;;;;;;22.86;42.54;100612.88;1915043;92;28730;-74
2022/09/03 09:32:00;;;;;;;6.37;3.80;;;;;;;22.96;42.61;100606.01;1911083;92;31470;-65
2022/09/03 09:35:10;;;;;;;9.10;3.70;;;;;;;22.90;42.01;100602.85;1915278;92;33387;-64
2022/09/03 09:38:13;;;;;;;5.58;3.72;;;;;;;22.86;42.76;100603.31;1915302;92;29761;-69
2022/09/03 09:41:19;;;;;;;7.97;3.92;;;;;;;22.90;42.92;100599.28;1915090;92;27716;-69
2022/09/03 09:44:21;;;;;;;8.53;3.25;;;;;;;22.88;42.78;100591.73;1915199;92;29378;-68
2022/09/03 09:47:30;;;;;;;4.58;3.35;;;;;;;22.81;42.28;100586.49;1915838;92;31443;-68
2022/09/03 09:50:32;;;;;;;6.78;3.37;;;;;;;22.78;43.06;100579.47;1981647;89;33060;-66
2022/09/03 09:53:34;;;;;;;7.65;3.22;;;;;;;22.74;40.73;100594.42;2000725;89;30576;-67
2022/09/03 09:56:35;;;;;;;9.15;3.27;;;;;;;22.52;41.49;100582.83;2000973;89;27719;-66
2022/09/03 09:59:37;;;;;;;12.58;3.65;;;;;;;22.38;41.49;100580.53;2000877;89;28789;-66
2022/09/03 10:02:55;;;;;;;6.12;3.45;;;;;;;22.26;41.35;100582.07;2000675;89;32298;-66
2022/09/03 10:09:29;;;;;;;5.67;3.27;;;;;;;22.14;41.58;100591.42;1994662;89;30580;-63
2022/09/03 10:12:48;;;;;;;8.53;3.00;;;;;;;22.14;41.59;100581.36;2001380;89;27535;-68
2022/09/03 10:16:03;;;;;;;3.72;2.47;;;;;;;22.21;40.95;100587.61;2000927;89;28850;-68
2022/09/03 10:19:22;;;;;;;9.45;3.80;;;;;;;22.21;40.44;100584.88;2000706;89;31058;-70
2022/09/03 10:22:25;;;;;;;6.45;3.02;;;;;;;22.19;41.22;100575.98;2000794;89;33843;-68
2022/09/03 10:25:49;;;;;;;4.12;2.83;;;;;;;22.13;40.66;100569.23;1999612;87;30134;-65
2022/09/03 10:28:52;;;;;;;7.10;3.47;;;;;;;22.13;41.60;100565.99;1954808;91;28271;-69
2022/09/03 10:32:24;;;;;;;6.05;2.95;;;;;;;22.15;41.70;100568.08;1968082;90;28698;-65
2022/09/03 10:35:30;;;;;;;6.78;3.25;;;;;;;22.18;41.45;100568.28;1950313;91;31607;-67
2022/09/03 10:38:39;;;;;;;5.35;2.98;;;;;;;22.23;41.58;100567.34;1954765;91;34480;-66
2022/09/03 10:42:25;;;;;;;5.97;3.00;;;;;;;22.28;41.64;100562.81;1959462;89;30498;-68
2022/09/03 10:45:41;;;;;;;5.08;3.10;;;;;;;22.35;41.37;100561.23;1969349;89;28274;-67
2022/09/03 10:49:09;;;;;;;3.92;2.60;;;;;;;22.35;41.45;100552.16;1966728;89;29721;-68
2022/09/03 10:52:31;;;;;;;6.83;3.30;;;;;;;22.34;40.53;100557.30;1971620;89;31096;-62
2022/09/03 10:55:43;;;;;;;15.10;3.58;;;;;;;22.34;41.28;100551.83;1972554;89;34199;-72
2022/09/03 10:58:59;;;;;;;8.08;3.00;;;;;;;22.41;41.20;100562.02;1959136;89;30183;-65
2022/09/03 11:02:19;;;;;;;4.75;2.62;;;;;;;22.47;41.52;100548.31;1952413;90;27770;-67
2022/09/03 11:05:41;;;;;;;4.00;2.75;;;;;;;22.45;40.43;100547.07;1930999;91;29836;-67
2022/09/03 11:09:04;;;;;;;6.17;3.35;;;;;;;22.37;40.97;100544.20;1924928;91;31564;-68
2022/09/03 11:12:15;;;;;;;8.35;3.35;;;;;;;22.29;41.12;100547.67;1928140;91;33216;-65
2022/09/03 11:15:58;;;;;;;9.03;3.42;;;;;;;22.26;41.65;100536.16;1925463;91;29360;-63
2022/09/03 11:19:14;;;;;;;3.67;2.75;;;;;;;22.30;41.83;100535.75;1930480;91;27817;-67
2022/09/03 11:22:17;;;;;;;13.53;2.55;;;;;;;22.44;41.99;100533.06;1926835;91;28746;-64
2022/09/03 11:25:24;;;;;;;6.50;3.02;;;;;;;22.49;41.66;100523.58;1932361;91;31651;-65
2022/09/03 11:29:01;;;;;;;5.20;3.08;;;;;;;22.45;40.43;100519.77;1931334;89;33772;-66
2022/09/03 11:32:10;;;;;;;5.20;3.52;;;;;;;22.41;41.35;100526.53;1931054;91;29743;-67
2022/09/03 11:35:32;;;;;;;4.95;2.85;;;;;;;22.44;41.19;100509.86;1940486;91;27727;-65
2022/09/03 11:38:34;;;;;;;4.80;3.02;;;;;;;22.46;40.71;100519.28;1929931;91;29071;-67
2022/09/03 11:41:37;;;;;;;7.15;3.50;;;;;;;22.35;40.49;100515.31;1932459;89;31068;-65
2022/09/03 11:44:41;;;;;;;8.08;3.45;;;;;;;22.26;40.62;100511.59;1955420;89;32783;-66
2022/09/03 11:47:44;;;;;;;9.38;3.10;;;;;;;22.19;41.17;100507.75;1944490;88;30519;-65
2022/09/03 11:50:54;;;;;;;5.97;3.12;;;;;;;22.12;41.11;100512.94;1967732;89;27743;-66
2022/09/03 11:54:06;;;;;;;5.50;2.85;;;;;;;22.08;41.18;100508.78;1980920;89;29737;-64
2022/09/03 11:57:30;;;;;;;5.42;2.83;;;;;;;22.09;41.08;100507.77;1979504;89;32227;-65
2022/09/03 12:00:31;;;;;;;4.20;2.65;;;;;;;22.01;40.90;100508.50;1984433;89;33331;-65
2022/09/03 12:03:51;;;;;;;5.20;2.90;;;;;;;21.96;41.33;100513.04;1982927;89;30099;-65
2022/09/03 12:07:34;;;;;;;5.00;2.58;;;;;;;21.89;40.79;100506.95;1953895;90;27726;-69
2022/09/03 12:10:46;;;;;;;8.93;3.10;;;;;;;21.83;41.64;100509.75;1977925;89;28583;-67
2022/09/03 12:14:20;;;;;;;9.68;3.55;;;;;;;21.78;41.46;100507.95;1973957;89;31786;-64
2022/09/03 12:17:35;;;;;;;6.03;3.27;;;;;;;21.79;41.40;100509.16;1981441;89;32500;-64
2022/09/03 12:20:36;;;;;;;6.33;3.15;;;;;;;21.84;41.63;100495.96;1946423;90;30255;-70
2022/09/03 12:23:45;;;;;;;4.95;3.52;;;;;;;21.95;40.88;100498.16;1954740;89;28207;-67
2022/09/03 12:26:46;;;;;;;7.20;3.55;;;;;;;21.94;41.29;100491.86;1964336;88;29497;-67
2022/09/03 12:30:00;;;;;;;8.95;3.47;;;;;;;21.90;41.43;100490.94;1993670;88;32272;-65
2022/09/03 12:33:06;;;;;;;6.10;2.83;;;;;;;21.89;41.80;100490.06;2001070;88;33041;-66
2022/09/03 12:36:08;;;;;;;6.37;2.90;;;;;;;22.01;41.36;100484.80;1994982;87;29745;-62
2022/09/03 12:39:19;;;;;;;4.95;3.27;;;;;;;22.07;41.31;100490.20;1988801;89;28244;-65
2022/09/03 12:42:29;;;;;;;12.00;3.17;;;;;;;22.09;41.37;100489.52;1973026;90;30847;-63
2022/09/03 12:45:31;;;;;;;5.45;3.10;;;;;;;21.99;40.99;100484.59;1940961;91;31892;-64
2022/09/03 12:48:32;;;;;;;4.40;3.00;;;;;;;21.88;41.29;100478.79;1973854;88;33450;-64
2022/09/03 12:51:40;;;;;;;5.55;2.98;;;;;;;21.91;41.59;100481.75;1974362;90;29721;-64
2022/09/03 12:54:57;;;;;;;7.40;2.90;;;;;;;22.03;41.55;100481.94;1997977;89;27557;-63
2022/09/03 12:58:27;;;;;;;2.98;2.67;;;;;;;22.10;40.77;100480.33;1998099;89;29243;-64
2022/09/03 13:01:33;;;;;;;6.62;3.17;;;;;;;22.08;40.75;100478.28;1998349;89;31441;-64
2022/09/03 13:04:36;;;;;;;10.72;3.40;;;;;;;22.03;41.18;100481.94;1997784;87;32993;-66
2022/09/03 13:07:37;;;;;;;4.55;2.33;;;;;;;21.99;40.99;100485.95;1997991;89;29691;-64
2022/09/03 13:10:41;;;;;;;2.98;2.25;;;;;;;21.95;41.02;100474.48;1997898;89;27635;-64
2022/09/03 13:13:57;;;;;;;7.70;2.98;;;;;;;21.95;40.66;100470.88;1967181;89;29074;-65
2022/09/03 13:17:16;;;;;;;7.40;2.67;;;;;;;21.89;40.38;100472.33;1993867;89;31972;-65
2022/09/03 13:20:35;;;;;;;7.20;2.58;;;;;;;21.88;41.38;100467.87;1893063;93;33378;-64
2022/09/03 13:23:42;;;;;;;6.55;3.50;;;;;;;21.93;40.87;100471.53;1891910;94;29346;-65
2022/09/03 13:27:11;;;;;;;8.10;2.75;;;;;;;22.00;41.28;100473.55;1893450;93;27812;-66
2022/09/03 13:30:18;;;;;;;4.60;2.92;;;;;;;22.11;40.88;100468.92;1909306;93;29159;-65
2022/09/03 13:33:34;;;;;;;6.58;3.30;;;;;;;22.11;41.22;100467.05;1910020;93;31057;-66
2022/09/03 13:36:44;;;;;;;8.90;5.10;;;;;;;22.07;41.11;100464.77;1909948;93;33168;-64
2022/09/03 13:40:14;;;;;;;3.42;2.42;;;;;;;22.11;41.40;100469.77;1910209;93;30057;-63
2022/09/03 13:43:41;;;;;;;4.85;3.00;;;;;;;22.21;41.47;100472.48;1910325;93;27627;-68
2022/09/03 13:46:53;;;;;;;5.45;3.50;;;;;;;22.27;41.11;100467.80;1910407;93;28689;-66
2022/09/03 13:50:25;;;;;;;4.65;3.85;;;;;;;22.37;40.57;100462.80;1889484;93;31870;-66
2022/09/03 13:53:38;;;;;;;5.97;3.47;;;;;;;22.48;40.37;100472.71;1910038;93;33657;-64
2022/09/03 13:57:02;;;;;;;5.65;2.95;;;;;;;22.46;40.43;100467.41;1947955;89;29425;-70
2022/09/03 14:00:10;;;;;;;4.22;3.17;;;;;;;22.46;40.29;100470.14;1993372;89;28207;-68
2022/09/03 14:03:33;;;;;;;3.58;2.45;;;;;;;22.49;40.56;100466.24;1965689;90;28736;-65
2022/09/03 14:06:51;;;;;;;3.95;2.25;;;;;;;22.49;40.57;100468.48;1968022;90;31667;-68
2022/09/03 14:10:19;;;;;;;8.08;3.25;;;;;;;22.47;40.59;100465.04;1967940;90;34236;-64
2022/09/03 14:13:41;;;;;;;4.25;2.70;;;;;;;22.41;40.47;100472.42;1931485;92;29714;-64
2022/09/03 14:17:20;;;;;;;6.92;3.00;;;;;;;22.26;40.74;100467.45;1957226;88;27831;-63
2022/09/03 14:20:28;;;;;;;11.22;3.00;;;;;;;22.19;41.07;100475.01;1960434;88;29047;-64
2022/09/03 14:24:08;;;;;;;4.58;2.90;;;;;;;22.08;41.42;100463.76;1966650;88;31046;-65
2022/09/03 14:27:10;;;;;;;8.95;3.42;;;;;;;22.00;41.79;100471.31;1963517;88;33100;-66
2022/09/03 14:30:34;;;;;;;6.58;2.95;;;;;;;21.91;41.95;100474.41;1941269;90;29742;-64
2022/09/03 14:34:01;;;;;;;4.70;3.40;;;;;;;21.82;42.30;100471.21;1946216;90;27780;-64
2022/09/03 14:37:36;;;;;;;5.12;3.10;;;;;;;21.82;42.52;100472.58;1934237;90;28712;-64
2022/09/03 14:40:48;;;;;;;4.45;3.10;;;;;;;21.88;42.62;100468.40;1944501;90;31474;-63
2022/09/03 14:44:31;;;;;;;7.65;2.60;;;;;;;21.96;42.96;100468.02;1957949;89;32975;-66
2022/09/03 14:47:59;;;;;;;6.50;3.42;;;;;;;22.03;42.39;100457.87;1958029;89;29839;-68
2022/09/03 14:51:21;;;;;;;4.75;3.45;;;;;;;21.99;42.30;100462.28;1958548;89;27797;-64